Zanesville, OH

2:55 AM EDT on July 03, 2015 (GMT -0400)
Zanesville Municipal | | Change Station
CLOSE
Current Station
Airport
Location: Zanesville,
Elevation: 899 ft
Nearby Weather Stations

Elev 899 ft 39.94 °N, 81.89 °W | Updated 1 hour ago

Partly Cloudy
Partly Cloudy
62 °F
Feels Like 62 °F
N
0
Wind Variable Wind from North

Today
High -- | Low -- °F
--% Chance of Precip.
Yesterday
High -- | Low -- °F
Precip. -- in
6:03 AM 8:59 PM
Full, 98% visible
Pressure 29.94 in
Visibility 7.0 miles
Clouds Few 6500 ft
Dew Point 57 °F
Humidity 84%
Rainfall 0.00 in
Snow Depth Not available.
UV 0 out of 12
Pollen 3.80 out of 12
Air Quality Not available.
Flu Activity Not available.
METAR KZZV 030553Z AUTO 00000KT 7SM FEW065 17/14 A2996 RMK AO2 SLP138 T01670139 10228 20167 50001

More Conditions Fewer Conditions

Pressure 29.94 in
Visibility 7.0 miles
Clouds Few 6500 ft
Dew Point 57 °F
Humidity 84%
Rainfall 0.00 in
Snow Depth Not available.
UV 0 out of 12
Pollen 3.80 out of 12
Air Quality Not available.
Flu Activity Not available.
METAR KZZV 030553Z AUTO 00000KT 7SM FEW065 17/14 A2996 RMK AO2 SLP138 T01670139 10228 20167 50001

More Conditions Fewer Conditions

10-Day Weather Forecast

×

Almanac

Astronomy

Jul. 03, 2015 Rise Set
Actual Time
Civil Twilight
Nautical Twilight
Astronomical Twilight
Moon
Length of Visible Light
Length of Day
Tomorrow will be .
, % of the Moon is Illuminated

Today's Extremes

State Highs State Lows

Community

WunderPhotos

Upload Photos

1,834,634 photos uploaded!

WunderBlogs® & News

Nearby

Air Quality

  Air Quality AQ Index Pollutant
Not available.

Snow Depth

Station Depth Elevation

Earthquake Activity

City Distance Mag. Time & Date
Minimum magnitude displayed is 2.5.

Coastal Water Temperatures

Place Temperature

Stations

Nearby Weather Stations

Station Location Temp. Windchill Dew Point Humidity Wind Precip. Elev Updated Type